createdAt,value
2016-11-25T15:17:03.166Z,1
2016-11-25T15:17:13.288Z,1
2016-11-25T15:17:23.429Z,1
2016-11-25T15:17:33.629Z,1
2016-11-25T15:17:43.743Z,1
2016-11-25T15:17:53.857Z,1
2016-11-25T15:18:03.986Z,1
2016-11-25T15:18:14.140Z,1
2016-11-25T15:18:24.296Z,1
2016-11-25T15:18:34.417Z,1
2016-11-25T15:18:44.548Z,1
2016-11-25T15:18:54.840Z,1
2016-11-25T15:19:04.952Z,1
2016-11-25T15:20:45.837Z,1
2016-11-25T16:23:44.959Z,292
2016-11-25T16:24:45.046Z,293
2016-11-25T16:25:45.272Z,294
2016-11-25T16:26:45.357Z,294
2016-11-25T16:27:45.501Z,294
2016-11-25T16:28:45.674Z,294
2016-11-25T16:29:45.775Z,294
2016-11-25T16:30:45.928Z,295
2016-11-25T16:31:46.024Z,294
2016-11-25T16:32:46.183Z,294
2016-11-25T16:33:46.328Z,294
2016-11-25T16:34:46.498Z,294
2016-11-25T16:35:46.647Z,294
2016-11-25T16:36:46.766Z,294
2016-11-25T16:37:46.835Z,294
2016-11-25T16:38:47.057Z,294
2016-11-25T16:39:47.258Z,294
2016-11-25T16:40:47.391Z,294
2016-11-25T16:41:47.600Z,294
2016-11-25T16:42:47.721Z,294
2016-11-25T16:43:47.865Z,293
2016-11-25T16:44:48.025Z,294
2016-11-25T16:45:48.827Z,294
2016-11-25T16:46:48.991Z,294
2016-11-25T16:47:49.134Z,295
2016-11-25T16:48:49.371Z,294
2016-11-25T16:49:49.509Z,293
2016-11-25T16:50:49.655Z,250
2016-11-25T16:51:49.828Z,273
2016-11-25T16:52:49.979Z,274
2016-11-25T16:53:50.132Z,277
2016-11-25T16:54:50.292Z,277
2016-11-25T16:55:50.441Z,278
2016-11-25T16:56:50.546Z,278
2016-11-25T16:57:50.704Z,278
2016-11-25T16:58:50.900Z,293
2016-11-25T16:59:51.033Z,295
2016-11-25T17:00:51.117Z,295
2016-11-25T17:01:51.198Z,294
2016-11-25T17:02:51.350Z,295
2016-11-25T17:03:51.585Z,294
2016-11-25T17:04:51.740Z,295
2016-11-25T17:05:51.817Z,294
2016-11-25T17:06:51.924Z,295
2016-11-25T17:07:52.111Z,295
2016-11-25T17:08:52.234Z,295
2016-11-25T17:09:52.357Z,295
2016-11-25T17:10:52.493Z,295
2016-11-25T17:11:52.634Z,295
2016-11-25T17:12:52.790Z,295
2016-11-25T17:13:52.958Z,295
2016-11-25T17:14:53.084Z,294
2016-11-25T17:15:53.184Z,295
2016-11-25T17:16:53.274Z,294
2016-11-25T17:17:53.381Z,295
2016-11-25T17:18:53.577Z,295
2016-11-25T17:19:53.708Z,295
2016-11-25T17:20:53.846Z,294
2016-11-25T17:21:54.002Z,295
2016-11-25T17:22:54.146Z,295
2016-11-25T17:23:54.286Z,294
2016-11-25T17:24:54.368Z,294
2016-11-25T17:25:54.583Z,295
2016-11-25T17:26:54.724Z,295
2016-11-25T17:27:54.847Z,295
2016-11-25T17:28:55.008Z,295
2016-11-25T17:29:55.116Z,295
2016-11-25T17:30:55.261Z,295
2016-11-25T17:31:55.476Z,294
2016-11-25T17:32:55.674Z,295
2016-11-25T17:33:55.888Z,295
2016-11-25T17:34:55.956Z,294
2016-11-25T17:35:56.053Z,294
2016-11-25T17:36:56.168Z,294
2016-11-25T17:37:56.316Z,295
2016-11-25T17:38:56.477Z,295
2016-11-25T17:39:56.630Z,295
2016-11-25T17:40:56.733Z,295
2016-11-25T17:41:56.803Z,295
2016-11-25T17:42:56.979Z,294
2016-11-25T17:43:57.066Z,294
2016-11-25T17:44:57.250Z,295
2016-11-25T17:45:57.491Z,295
2016-11-25T17:46:57.649Z,295
2016-11-25T17:47:57.774Z,295
2016-11-25T17:48:57.895Z,295
2016-11-25T17:49:58.074Z,295
2016-11-25T17:50:58.298Z,296
2016-11-25T17:51:58.435Z,295
2016-11-25T17:52:58.555Z,294
2016-11-25T17:53:58.692Z,295
2016-11-25T17:54:58.944Z,295
2016-11-25T17:55:59.026Z,294
2016-11-25T17:56:59.177Z,295
2016-11-25T17:57:59.363Z,294
2016-11-25T17:58:59.449Z,295
2016-11-25T17:59:59.583Z,295
2016-11-25T18:00:59.737Z,295
2016-11-25T18:01:59.844Z,294
2016-11-25T18:02:59.968Z,294
2016-11-25T18:04:00.114Z,295
2016-11-25T18:05:00.201Z,296
2016-11-25T18:06:00.330Z,294
2016-11-25T18:07:00.526Z,294
2016-11-25T18:08:00.658Z,295
2016-11-25T18:09:00.859Z,295
2016-11-25T18:10:00.964Z,294
2016-11-25T18:11:01.169Z,294
2016-11-25T18:12:01.384Z,294
2016-11-25T18:13:01.508Z,294
2016-11-25T18:14:01.648Z,295
2016-11-25T18:15:01.761Z,294
2016-11-25T18:16:01.933Z,294
2016-11-25T18:17:02.009Z,294
2016-11-25T18:18:02.146Z,294
2016-11-25T18:19:02.274Z,295
2016-11-25T18:20:02.408Z,281
2016-11-25T18:21:02.567Z,283
2016-11-25T18:22:02.773Z,283
2016-11-25T18:23:02.955Z,282
2016-11-25T18:24:03.104Z,284
2016-11-25T18:25:03.251Z,284
2016-11-25T18:26:03.436Z,285
2016-11-25T18:27:03.592Z,285
2016-11-25T18:28:03.636Z,285
2016-11-25T18:29:03.721Z,286
2016-11-25T18:30:03.883Z,294
2016-11-25T18:31:03.972Z,294
2016-11-25T18:32:04.109Z,294
2016-11-25T18:33:04.232Z,294
2016-11-25T18:34:04.381Z,294
2016-11-25T18:35:04.512Z,294
2016-11-25T18:36:04.709Z,294
2016-11-25T18:37:04.820Z,294
2016-11-25T18:38:04.916Z,294
2016-11-25T18:39:05.094Z,294
2016-11-25T18:40:05.306Z,295
2016-11-25T18:41:05.537Z,294
2016-11-25T18:42:05.605Z,293
2016-11-25T18:43:05.796Z,294
2016-11-25T18:44:05.858Z,277
2016-11-25T18:45:06.026Z,277
2016-11-25T18:46:06.168Z,277
2016-11-25T18:47:06.289Z,277
2016-11-25T18:49:33.267Z,278
2016-11-25T18:50:33.461Z,280
2016-11-25T18:51:33.615Z,279
2016-11-25T18:52:33.795Z,277
2016-11-25T18:53:33.980Z,278
2016-11-25T18:54:34.129Z,279
2016-11-25T18:55:34.256Z,279
2016-11-25T18:56:34.420Z,280
2016-11-25T18:57:34.561Z,280
2016-11-25T18:58:34.779Z,280
2016-11-25T18:59:34.966Z,280
2016-11-25T19:00:35.113Z,280
2016-11-25T19:01:35.305Z,280
2016-11-25T19:02:35.590Z,280
2016-11-25T19:03:35.842Z,281
2016-11-25T19:04:36.148Z,281
2016-11-25T19:05:36.281Z,281
2016-11-25T19:06:36.439Z,280
2016-11-25T19:07:36.611Z,281
2016-11-25T19:08:36.819Z,281
2016-11-25T19:09:36.972Z,281
2016-11-25T19:10:37.122Z,280
2016-11-25T19:11:37.211Z,280
2016-11-25T19:12:37.298Z,281
2016-11-25T19:13:37.487Z,281
2016-11-25T19:14:37.634Z,281
2016-11-25T19:15:37.773Z,281
2016-11-25T19:16:37.851Z,280
2016-11-25T19:17:37.989Z,281
2016-11-25T19:18:38.271Z,281
2016-11-25T19:19:38.402Z,281
2016-11-25T19:20:38.640Z,281
2016-11-25T19:21:38.806Z,281
2016-11-25T19:22:38.959Z,281
2016-11-25T19:23:39.125Z,281
2016-11-25T19:24:39.375Z,282
2016-11-25T19:25:39.494Z,281
2016-11-25T19:26:39.573Z,282
2016-11-25T19:27:39.742Z,282
2016-11-25T19:28:39.874Z,282
2016-11-25T19:29:40.001Z,282
2016-11-25T19:30:40.223Z,282
2016-11-25T19:31:40.416Z,282
2016-11-25T19:32:40.539Z,282
2016-11-25T19:33:40.669Z,282
2016-11-25T19:34:40.880Z,281
2016-11-25T19:35:41.003Z,281
2016-11-25T19:36:41.186Z,281
2016-11-25T19:37:41.334Z,281
2016-11-25T19:38:41.491Z,281
2016-11-25T19:39:41.644Z,281
2016-11-25T19:40:41.843Z,282
2016-11-25T19:41:41.984Z,281
2016-11-25T19:42:42.154Z,281
2016-11-25T19:43:42.257Z,282
2016-11-25T19:44:42.418Z,282
2016-11-25T19:45:42.553Z,282
2016-11-25T19:46:42.760Z,282
2016-11-25T19:47:42.882Z,282
2016-11-25T19:48:43.020Z,281
2016-11-25T19:49:43.109Z,282
2016-11-25T19:50:43.409Z,282
2016-11-25T19:51:43.553Z,282
2016-11-25T19:52:43.801Z,281
2016-11-25T19:53:43.893Z,281
2016-11-25T19:54:44.011Z,281
2016-11-25T19:55:44.111Z,281
2016-11-25T19:56:44.277Z,281
2016-11-25T19:57:44.385Z,282
2016-11-25T19:58:44.495Z,282
2016-11-25T19:59:44.651Z,282
2016-11-25T20:00:44.748Z,278
2016-11-25T20:01:44.971Z,279
2016-11-25T20:02:45.382Z,280
2016-11-25T20:03:45.471Z,280
2016-11-25T20:04:45.567Z,280
2016-11-25T20:05:45.714Z,280
2016-11-25T20:06:45.848Z,280
2016-11-25T20:07:45.926Z,280
2016-11-25T20:08:46.067Z,280
2016-11-25T20:09:46.172Z,280
2016-11-25T20:10:46.237Z,280
2016-11-25T20:11:46.388Z,280
2016-11-25T20:12:46.520Z,279
2016-11-25T20:13:46.610Z,280
2016-11-25T20:14:46.671Z,280
2016-11-25T20:15:46.846Z,281
2016-11-25T20:16:46.924Z,281
2016-11-25T20:17:47.089Z,281
2016-11-25T20:18:47.256Z,281
2016-11-25T20:19:47.404Z,281
2016-11-25T20:20:47.513Z,280
2016-11-25T20:21:47.638Z,281
2016-11-25T20:22:47.729Z,281
2016-11-25T20:23:47.847Z,281
2016-11-25T20:24:47.967Z,281
2016-11-25T20:25:48.132Z,281
2016-11-25T20:26:48.198Z,280
2016-11-25T20:27:48.347Z,281
2016-11-25T20:28:48.465Z,281
2016-11-25T20:29:48.607Z,281
2016-11-25T20:30:48.705Z,281
2016-11-25T20:31:48.858Z,281
2016-11-25T20:32:48.992Z,281
2016-11-25T20:33:49.119Z,280
2016-11-25T20:34:49.258Z,281
2016-11-25T20:35:49.422Z,281
2016-11-25T20:36:49.571Z,281
2016-11-25T20:37:49.820Z,281
2016-11-25T20:38:50.021Z,280
2016-11-25T20:39:50.196Z,281
2016-11-25T20:40:50.332Z,281
2016-11-25T20:41:50.449Z,282
2016-11-25T20:42:50.638Z,281
2016-11-25T20:43:50.725Z,281
2016-11-25T20:44:50.897Z,281
2016-11-25T20:45:51.056Z,281
2016-11-25T20:46:51.220Z,281
2016-11-25T20:47:51.273Z,281
2016-11-25T20:48:51.447Z,282
2016-11-25T20:49:51.669Z,281
2016-11-25T20:50:51.824Z,281
2016-11-25T20:51:52.003Z,281
2016-11-25T20:52:52.191Z,281
2016-11-25T20:53:52.335Z,281
2016-11-25T20:54:52.463Z,281
2016-11-25T20:55:52.569Z,281
2016-11-25T20:56:52.692Z,281
2016-11-25T20:57:52.830Z,281
2016-11-25T20:58:52.991Z,281
2016-11-25T20:59:53.087Z,280
2016-11-25T21:00:53.200Z,281
2016-11-25T21:01:53.313Z,280
2016-11-25T21:02:53.428Z,281
2016-11-25T21:03:53.556Z,281
2016-11-25T21:04:53.672Z,281
2016-11-25T21:05:53.874Z,281
2016-11-25T21:06:53.990Z,281
2016-11-25T21:07:54.177Z,281
2016-11-25T21:08:54.297Z,281
2016-11-25T21:09:54.404Z,282
2016-11-25T21:10:54.535Z,282
2016-11-25T21:11:54.713Z,281
2016-11-25T21:12:54.873Z,281
2016-11-25T21:13:55.004Z,281
2016-11-25T21:14:55.100Z,281
2016-11-25T21:15:55.208Z,281
2016-11-25T21:16:55.337Z,282
2016-11-25T21:17:55.419Z,282
2016-11-25T21:18:55.585Z,281
2016-11-25T21:19:55.690Z,282
2016-11-25T21:20:55.833Z,282
2016-11-25T21:21:55.964Z,282
2016-11-25T21:22:56.096Z,282
2016-11-25T21:23:56.211Z,281
2016-11-25T21:24:56.325Z,282
2016-11-25T21:25:56.505Z,282
2016-11-25T21:26:56.609Z,282
2016-11-25T21:27:56.688Z,282
2016-11-25T21:28:56.819Z,281
2016-11-25T21:29:57.028Z,282
2016-11-25T21:30:57.114Z,277
2016-11-25T21:31:57.229Z,279
2016-11-25T21:32:57.322Z,279
2016-11-25T21:33:57.559Z,280
2016-11-25T21:34:57.646Z,279
2016-11-25T21:35:57.829Z,280
2016-11-25T21:36:57.891Z,281
2016-11-25T21:37:58.050Z,280
2016-11-25T21:38:58.167Z,280
2016-11-25T21:39:58.314Z,280
2016-11-25T21:40:58.382Z,280
2016-11-25T21:41:58.487Z,281
2016-11-25T21:42:58.643Z,280
2016-11-25T21:43:58.780Z,280
2016-11-25T21:44:58.919Z,280
2016-11-25T21:45:59.012Z,280
2016-11-25T21:46:59.144Z,280
2016-11-25T21:47:59.345Z,280
2016-11-25T21:48:59.494Z,280
2016-11-25T21:49:59.595Z,281
2016-11-25T21:50:59.808Z,280
2016-11-25T21:51:59.888Z,280
2016-11-25T21:53:00.010Z,280
2016-11-25T21:54:00.159Z,280
2016-11-25T21:55:00.283Z,280
2016-11-25T21:56:00.349Z,281
2016-11-25T21:57:00.455Z,281
2016-11-25T21:58:00.573Z,282
2016-11-25T21:59:00.703Z,280
2016-11-25T22:00:00.841Z,281
2016-11-25T22:01:00.954Z,281
2016-11-25T22:02:01.139Z,281
2016-11-25T22:03:01.247Z,281
2016-11-25T22:04:01.385Z,281
2016-11-25T22:05:01.656Z,281
2016-11-25T22:06:01.816Z,281
2016-11-25T22:07:01.902Z,282
2016-11-25T22:08:02.002Z,281
2016-11-25T22:09:02.127Z,281
2016-11-25T22:10:02.232Z,281
2016-11-25T22:11:02.400Z,281
2016-11-25T22:12:02.503Z,281
2016-11-25T22:13:02.604Z,282
2016-11-25T22:14:02.741Z,281
2016-11-25T22:15:02.981Z,281
2016-11-25T22:16:03.133Z,282
2016-11-25T22:17:03.293Z,282
2016-11-25T22:18:03.439Z,281
2016-11-25T22:19:03.485Z,281
2016-11-25T22:20:03.641Z,281
2016-11-25T22:21:03.744Z,281
2016-11-25T22:22:03.861Z,281
2016-11-25T22:23:03.984Z,280
2016-11-25T22:24:04.090Z,280
2016-11-25T22:25:04.163Z,281
2016-11-25T22:26:04.297Z,281
2016-11-25T22:27:04.463Z,282
2016-11-25T22:28:05.514Z,281
2016-11-25T22:29:05.591Z,280
2016-11-25T22:30:05.731Z,280
2016-11-25T22:31:05.843Z,281
2016-11-25T22:32:05.998Z,281
2016-11-25T22:33:06.102Z,280
2016-11-25T22:34:06.198Z,281
2016-11-25T22:35:06.292Z,281
2016-11-25T22:36:06.457Z,281
2016-11-25T22:37:06.520Z,282
2016-11-25T22:38:06.634Z,281
2016-11-25T22:39:06.794Z,281
2016-11-25T22:40:06.906Z,281
2016-11-25T22:41:07.050Z,281
2016-11-25T22:42:07.172Z,282
2016-11-25T22:43:07.244Z,282
2016-11-25T22:44:07.391Z,282
2016-11-25T22:45:07.512Z,282
2016-11-25T22:46:07.629Z,281
2016-11-25T22:47:07.736Z,282
2016-11-25T22:48:07.859Z,282
2016-11-25T22:49:07.948Z,281
2016-11-25T22:50:08.039Z,281
2016-11-25T22:51:08.195Z,281
2016-11-25T22:52:08.306Z,281
2016-11-25T22:53:08.364Z,281
2016-11-25T22:54:08.478Z,281
2016-11-25T22:55:08.554Z,282
2016-11-25T22:56:08.707Z,283
2016-11-25T22:57:08.786Z,282
2016-11-25T22:58:08.947Z,281
2016-11-25T22:59:09.047Z,282
2016-11-25T23:00:09.185Z,282
2016-11-25T23:01:09.334Z,282
2016-11-25T23:02:09.488Z,282
2016-11-25T23:03:09.592Z,281
2016-11-25T23:04:09.691Z,282
2016-11-25T23:05:09.832Z,281
2016-11-25T23:06:09.966Z,281
2016-11-25T23:07:10.120Z,282
2016-11-25T23:08:10.238Z,281
2016-11-25T23:09:10.367Z,281
2016-11-25T23:10:10.472Z,282
2016-11-25T23:11:10.653Z,281
2016-11-25T23:12:10.733Z,281
2016-11-25T23:13:10.840Z,281
2016-11-25T23:14:10.963Z,281
2016-11-25T23:15:11.103Z,281
2016-11-25T23:16:11.248Z,281
2016-11-25T23:17:11.334Z,282
2016-11-25T23:18:11.453Z,281
2016-11-25T23:19:11.551Z,281
2016-11-25T23:20:11.727Z,282
2016-11-25T23:21:11.889Z,281
2016-11-25T23:22:11.986Z,281
2016-11-25T23:23:12.068Z,281
2016-11-25T23:24:12.149Z,282
2016-11-25T23:25:12.266Z,281
2016-11-25T23:26:12.402Z,281
2016-11-25T23:27:12.480Z,281
2016-11-25T23:28:12.579Z,282
2016-11-25T23:29:12.650Z,281
2016-11-25T23:30:12.800Z,281
2016-11-25T23:31:12.896Z,281
2016-11-25T23:32:13.059Z,281
2016-11-25T23:33:13.194Z,281
2016-11-25T23:34:13.311Z,281
2016-11-25T23:35:13.428Z,281
2016-11-25T23:36:13.588Z,281
2016-11-25T23:37:13.659Z,281
2016-11-25T23:38:13.734Z,282
2016-11-25T23:39:13.831Z,281
2016-11-25T23:40:13.988Z,281
2016-11-25T23:41:14.097Z,281
2016-11-25T23:42:14.200Z,281
2016-11-25T23:43:14.293Z,281
2016-11-25T23:44:14.370Z,281
2016-11-25T23:45:14.489Z,281
2016-11-25T23:46:14.576Z,282
2016-11-25T23:47:14.708Z,281
2016-11-25T23:48:14.854Z,282
2016-11-25T23:49:14.988Z,281
2016-11-25T23:50:15.139Z,282
2016-11-25T23:51:15.265Z,281
2016-11-25T23:52:15.354Z,281
2016-11-25T23:53:15.413Z,281
2016-11-25T23:54:15.526Z,281
2016-11-25T23:55:15.615Z,281
2016-11-25T23:56:15.736Z,281
2016-11-25T23:57:15.846Z,281
2016-11-25T23:58:15.957Z,282
2016-11-25T23:59:16.105Z,281
